createdAt,value
2018-04-09T00:01:11.253Z,81.30
2018-04-09T00:03:38.712Z,81.60
2018-04-09T00:06:06.180Z,81.30
2018-04-09T00:08:33.621Z,82.20
2018-04-09T00:11:01.070Z,82.00
2018-04-09T00:13:29.292Z,82.50
2018-04-09T00:15:56.734Z,82.40
2018-04-09T00:18:24.183Z,82.50
2018-04-09T00:20:51.632Z,82.20
2018-04-09T00:23:19.866Z,82.10
2018-04-09T00:25:47.326Z,82.20
2018-04-09T00:28:14.787Z,80.90
2018-04-09T00:30:42.238Z,81.50
2018-04-09T00:33:09.721Z,81.20
2018-04-09T00:35:37.181Z,82.00
2018-04-09T00:38:04.646Z,82.00
2018-04-09T00:40:32.105Z,81.20
2018-04-09T00:42:59.552Z,80.80
2018-04-09T00:45:27.029Z,82.30
2018-04-09T00:47:54.491Z,80.90
2018-04-09T00:50:21.977Z,81.70
2018-04-09T00:52:49.416Z,81.20
2018-04-09T00:55:16.882Z,81.30
2018-04-09T00:57:45.166Z,81.40
2018-04-09T01:00:12.623Z,81.60
2018-04-09T01:02:40.077Z,81.70
2018-04-09T01:05:07.547Z,81.90
2018-04-09T01:07:35.015Z,81.70
2018-04-09T01:10:02.519Z,82.10
2018-04-09T01:12:30.762Z,83.40
2018-04-09T01:14:58.230Z,83.30
2018-04-09T01:17:25.694Z,84.70
2018-04-09T01:19:53.150Z,85.10
2018-04-09T01:22:20.632Z,86.40
2018-04-09T01:24:48.086Z,86.70
2018-04-09T01:27:15.524Z,86.50
2018-04-09T01:29:43.075Z,86.30
2018-04-09T01:32:10.515Z,86.70
2018-04-09T01:34:38.890Z,86.80
2018-04-09T01:37:07.144Z,88.10
2018-04-09T01:39:34.624Z,88.10
2018-04-09T01:42:02.838Z,87.90
2018-04-09T01:44:30.301Z,87.90
2018-04-09T01:46:57.763Z,87.40
2018-04-09T01:49:25.199Z,87.40
2018-04-09T01:51:53.428Z,87.60
2018-04-09T01:54:20.865Z,87.60
2018-04-09T01:56:48.314Z,87.80
2018-04-09T01:59:15.774Z,87.50
2018-04-09T02:01:44.004Z,87.60
2018-04-09T02:04:11.465Z,87.60
2018-04-09T02:06:38.914Z,87.40
2018-04-09T02:09:06.361Z,87.20
2018-04-09T02:11:33.820Z,87.70
2018-04-09T02:14:01.270Z,88.00
2018-04-09T02:16:28.746Z,88.10
2018-04-09T02:18:56.206Z,88.10
2018-04-09T02:21:23.667Z,87.50
2018-04-09T02:23:51.117Z,88.90
2018-04-09T02:26:18.575Z,88.70
2018-04-09T02:28:46.782Z,88.90
2018-04-09T02:31:14.241Z,88.90
2018-04-09T02:33:41.721Z,88.20
2018-04-09T02:36:09.180Z,89.50
2018-04-09T02:38:36.649Z,88.70
2018-04-09T02:41:04.107Z,89.10
2018-04-09T02:43:31.570Z,89.60
2018-04-09T02:45:59.030Z,89.30
2018-04-09T02:48:26.479Z,89.70
2018-04-09T02:50:53.940Z,89.80
2018-04-09T02:53:21.399Z,89.80
2018-04-09T02:55:48.875Z,89.40
2018-04-09T02:58:16.330Z,89.70
2018-04-09T03:00:43.804Z,90.10
2018-04-09T03:03:11.249Z,89.00
2018-04-09T03:05:38.681Z,87.70
2018-04-09T03:08:06.134Z,87.20
2018-04-09T03:10:33.579Z,86.90
2018-04-09T03:13:01.828Z,87.80
2018-04-09T03:15:29.298Z,87.70
2018-04-09T03:17:56.748Z,88.20
2018-04-09T03:20:24.208Z,86.70
2018-04-09T03:22:51.667Z,88.30
2018-04-09T03:25:19.128Z,88.40
2018-04-09T03:27:46.650Z,89.60
2018-04-09T03:30:14.093Z,89.10
2018-04-09T03:32:42.356Z,90.10
2018-04-09T03:35:09.828Z,90.10
2018-04-09T03:37:37.274Z,90.40
2018-04-09T03:40:04.736Z,90.50
2018-04-09T03:42:32.218Z,90.30
2018-04-09T03:44:59.652Z,90.40
2018-04-09T03:47:27.128Z,90.60
2018-04-09T03:49:54.577Z,90.60
2018-04-09T03:52:22.039Z,90.10
2018-04-09T03:54:49.492Z,89.80
2018-04-09T03:57:16.951Z,89.20
2018-04-09T03:59:44.402Z,90.00
2018-04-09T04:02:12.634Z,90.60
2018-04-09T04:04:40.839Z,90.60
2018-04-09T04:07:08.291Z,90.60
2018-04-09T04:09:36.524Z,89.40
2018-04-09T04:12:03.976Z,89.50
2018-04-09T04:14:31.438Z,88.30
2018-04-09T04:17:10.680Z,90.00
2018-04-09T04:19:50.019Z,90.00
2018-04-09T04:22:17.466Z,89.80
2018-04-09T04:24:45.047Z,90.30
2018-04-09T04:27:12.511Z,90.30
2018-04-09T04:29:39.963Z,90.10
2018-04-09T04:32:07.425Z,89.60
2018-04-09T04:34:34.883Z,89.50
2018-04-09T04:37:02.334Z,88.90
2018-04-09T04:39:29.931Z,88.90
2018-04-09T04:41:57.388Z,89.60
2018-04-09T04:44:24.848Z,90.30
2018-04-09T04:46:52.293Z,90.30
2018-04-09T04:49:19.762Z,90.40
2018-04-09T04:51:47.203Z,90.10
2018-04-09T04:54:14.648Z,90.20
2018-04-09T04:56:42.104Z,90.40
2018-04-09T04:59:09.580Z,90.70
2018-04-09T05:01:37.029Z,91.00
2018-04-09T05:04:04.508Z,91.00
2018-04-09T05:06:31.992Z,91.00
2018-04-09T05:08:59.462Z,91.10
2018-04-09T05:11:26.915Z,90.70
2018-04-09T05:13:55.176Z,90.50
2018-04-09T05:16:22.643Z,91.30
2018-04-09T05:18:50.129Z,91.50
2018-04-09T05:21:17.566Z,91.30
2018-04-09T05:23:45.026Z,91.40
2018-04-09T05:26:12.473Z,90.90
2018-04-09T05:28:39.925Z,90.40
2018-04-09T05:31:08.169Z,91.20
2018-04-09T05:33:35.623Z,91.10
2018-04-09T05:36:07.647Z,90.70
2018-04-09T05:38:35.106Z,90.70
2018-04-09T05:41:03.317Z,90.10
2018-04-09T05:43:30.792Z,90.10
2018-04-09T05:45:58.237Z,90.10
2018-04-09T05:48:25.674Z,91.00
2018-04-09T05:50:53.128Z,90.80
2018-04-09T05:53:21.341Z,90.10
2018-04-09T05:55:48.784Z,90.10
2018-04-09T05:58:16.237Z,90.90
2018-04-09T06:00:44.471Z,89.90
2018-04-09T06:03:11.945Z,89.90
2018-04-09T06:05:39.428Z,89.70
2018-04-09T06:08:07.641Z,90.50
2018-04-09T06:10:35.098Z,90.40
2018-04-09T06:13:02.546Z,90.70
2018-04-09T06:15:29.996Z,91.10
2018-04-09T06:17:58.231Z,90.50
2018-04-09T06:20:25.678Z,90.50
2018-04-09T06:22:53.138Z,90.40
2018-04-09T06:25:20.584Z,90.30
2018-04-09T06:27:48.036Z,90.20
2018-04-09T06:30:15.497Z,89.70
2018-04-09T06:32:43.688Z,89.40
2018-04-09T06:35:11.127Z,89.30
2018-04-09T06:37:39.357Z,89.30
2018-04-09T06:40:06.800Z,89.40
2018-04-09T06:42:34.258Z,89.80
2018-04-09T06:45:01.724Z,89.40
2018-04-09T06:47:29.178Z,90.70
2018-04-09T06:49:56.656Z,90.60
2018-04-09T06:52:24.108Z,90.20
2018-04-09T06:54:51.575Z,89.80
2018-04-09T06:57:19.031Z,89.60
2018-04-09T06:59:46.474Z,89.30
2018-04-09T07:02:14.720Z,90.20
2018-04-09T07:04:42.171Z,90.20
2018-04-09T07:07:09.702Z,90.10
2018-04-09T07:09:37.142Z,90.70
2018-04-09T07:12:05.373Z,91.30
2018-04-09T07:14:32.814Z,91.30
2018-04-09T07:17:00.278Z,91.40
2018-04-09T07:19:28.446Z,91.40
2018-04-09T07:21:55.918Z,91.40
2018-04-09T07:24:23.371Z,91.60
2018-04-09T07:26:50.868Z,92.00
2018-04-09T07:29:18.327Z,91.90
2018-04-09T07:31:45.788Z,92.50
2018-04-09T07:34:13.234Z,92.10
2018-04-09T07:36:40.682Z,91.80
2018-04-09T07:39:08.135Z,91.70
2018-04-09T07:41:35.623Z,91.80
2018-04-09T07:44:03.101Z,91.70
2018-04-09T07:46:30.727Z,91.10
2018-04-09T07:48:58.175Z,90.80
2018-04-09T07:51:26.398Z,90.00
2018-04-09T07:53:53.860Z,90.00
2018-04-09T07:56:21.351Z,90.50
2018-04-09T07:58:48.808Z,90.20
2018-04-09T08:01:16.254Z,90.40
2018-04-09T08:03:43.709Z,89.20
2018-04-09T08:06:13.080Z,87.70
2018-04-09T08:08:41.301Z,88.80
2018-04-09T08:11:08.842Z,88.80
2018-04-09T08:13:36.293Z,90.10
2018-04-09T08:16:03.727Z,90.40
2018-04-09T08:18:31.959Z,90.60
2018-04-09T08:20:59.436Z,90.40
2018-04-09T08:23:26.889Z,89.70
2018-04-09T08:25:54.629Z,89.70
2018-04-09T08:28:22.090Z,90.10
2018-04-09T08:30:49.539Z,90.00
2018-04-09T08:33:17.758Z,90.30
2018-04-09T08:35:45.216Z,90.30
2018-04-09T08:38:12.687Z,90.30
2018-04-09T08:40:40.131Z,90.50
2018-04-09T08:43:07.592Z,89.90
2018-04-09T08:45:35.022Z,88.40
2018-04-09T08:48:03.275Z,86.70
2018-04-09T08:50:30.748Z,86.70
2018-04-09T08:52:58.195Z,85.40
2018-04-09T08:55:25.648Z,85.90
2018-04-09T08:57:53.111Z,84.80
2018-04-09T09:00:20.552Z,84.20
2018-04-09T09:02:48.034Z,83.70
2018-04-09T09:05:16.632Z,82.80
2018-04-09T09:07:44.086Z,82.00
2018-04-09T09:10:11.543Z,82.10
2018-04-09T09:12:38.981Z,81.90
2018-04-09T09:15:06.448Z,81.40
2018-04-09T09:17:33.911Z,81.90
2018-04-09T09:20:01.390Z,82.30
2018-04-09T09:22:28.857Z,81.10
2018-04-09T09:24:56.347Z,81.50
2018-04-09T09:27:23.781Z,82.20
2018-04-09T09:29:51.245Z,83.20
2018-04-09T09:32:18.708Z,84.50
2018-04-09T09:34:46.163Z,82.70
2018-04-09T09:37:13.608Z,81.90
2018-04-09T09:39:41.078Z,79.80
2018-04-09T09:42:08.529Z,79.90
2018-04-09T09:44:35.977Z,79.80
2018-04-09T09:47:03.424Z,79.50
2018-04-09T09:49:31.653Z,79.40
2018-04-09T09:51:59.095Z,79.40
2018-04-09T09:54:26.553Z,79.60
2018-04-09T09:56:54.007Z,80.40
2018-04-09T09:59:21.451Z,79.50
2018-04-09T10:01:49.684Z,78.20
2018-04-09T10:04:17.137Z,78.10
2018-04-09T10:06:45.597Z,78.30
2018-04-09T10:09:13.064Z,78.90
2018-04-09T10:11:40.513Z,78.70
2018-04-09T10:14:08.747Z,78.60
2018-04-09T10:16:36.220Z,78.50
2018-04-09T10:19:03.664Z,78.60
2018-04-09T10:21:31.128Z,77.60
2018-04-09T10:23:58.570Z,78.40
2018-04-09T10:26:26.032Z,78.80
2018-04-09T10:28:53.488Z,78.30
2018-04-09T10:31:20.934Z,78.30
2018-04-09T10:33:48.386Z,78.20
2018-04-09T10:36:16.634Z,74.30
2018-04-09T10:38:44.063Z,74.20
2018-04-09T10:41:11.552Z,74.20
2018-04-09T10:43:38.997Z,75.00
2018-04-09T10:46:06.451Z,74.70
2018-04-09T10:48:33.914Z,74.10
2018-04-09T10:51:01.397Z,74.60
2018-04-09T10:53:28.852Z,75.00
2018-04-09T10:55:56.290Z,73.80
2018-04-09T10:58:23.730Z,73.70
2018-04-09T11:00:51.941Z,73.90
2018-04-09T11:03:19.411Z,73.90
2018-04-09T11:05:46.881Z,73.80
2018-04-09T11:08:14.325Z,72.80
2018-04-09T11:10:41.786Z,72.80
2018-04-09T11:13:09.217Z,72.70
2018-04-09T11:15:37.465Z,73.00
2018-04-09T11:18:04.916Z,72.90
2018-04-09T11:20:32.367Z,72.90
2018-04-09T11:22:59.810Z,72.90
2018-04-09T11:25:27.281Z,72.60
2018-04-09T11:27:54.738Z,72.60
2018-04-09T11:30:23.709Z,73.50
2018-04-09T11:32:51.936Z,72.20
2018-04-09T11:35:19.387Z,72.20
2018-04-09T11:37:46.840Z,71.20
2018-04-09T11:40:14.285Z,71.20
2018-04-09T11:42:41.741Z,71.30
2018-04-09T11:45:09.943Z,70.90
2018-04-09T11:47:37.402Z,71.00
2018-04-09T11:50:04.845Z,70.90
2018-04-09T11:52:33.056Z,72.30
2018-04-09T11:55:00.503Z,71.60
2018-04-09T11:57:28.026Z,71.00
2018-04-09T11:59:55.785Z,71.80
2018-04-09T12:02:23.352Z,71.80
2018-04-09T12:04:50.870Z,71.50
2018-04-09T12:07:18.316Z,71.70
2018-04-09T12:09:45.801Z,70.60
2018-04-09T12:12:13.360Z,70.40
2018-04-09T12:14:40.871Z,70.40
2018-04-09T12:17:10.342Z,70.20
2018-04-09T12:19:38.669Z,70.10
2018-04-09T12:22:06.189Z,70.00
2018-04-09T12:24:33.850Z,70.30
2018-04-09T12:27:01.649Z,70.10
2018-04-09T12:29:29.115Z,69.80
2018-04-09T12:31:56.739Z,69.10
2018-04-09T12:34:25.233Z,68.20
2018-04-09T12:36:52.726Z,70.10
2018-04-09T12:39:20.197Z,69.20
2018-04-09T12:41:47.655Z,69.10
2018-04-09T12:44:15.133Z,69.50
2018-04-09T12:46:42.610Z,69.10
2018-04-09T12:49:10.835Z,69.40
2018-04-09T12:51:38.437Z,69.40
2018-04-09T12:54:05.883Z,69.40
2018-04-09T12:56:33.372Z,69.20
2018-04-09T12:59:00.824Z,70.50
2018-04-09T13:01:28.305Z,71.00
2018-04-09T13:03:56.567Z,70.30
2018-04-09T13:06:24.822Z,69.80
2018-04-09T13:08:52.319Z,69.70
2018-04-09T13:11:20.992Z,70.00
2018-04-09T13:13:48.454Z,69.90
2018-04-09T13:16:15.914Z,71.10
2018-04-09T13:18:43.370Z,70.80
2018-04-09T13:21:10.909Z,69.90
2018-04-09T13:23:38.381Z,69.40
2018-04-09T13:26:05.834Z,69.70
2018-04-09T13:28:33.336Z,68.90
2018-04-09T13:31:00.802Z,70.20
2018-04-09T13:33:29.120Z,70.50
2018-04-09T13:35:56.568Z,69.90
2018-04-09T13:38:24.811Z,68.50
2018-04-09T13:40:52.267Z,68.50
2018-04-09T13:43:19.717Z,67.60
2018-04-09T13:45:47.313Z,67.30
2018-04-09T13:48:14.809Z,68.90
2018-04-09T13:50:43.037Z,63.20
2018-04-09T13:53:11.298Z,63.20
2018-04-09T13:55:38.781Z,64.10
2018-04-09T13:58:06.236Z,62.00
2018-04-09T14:00:33.692Z,60.90
2018-04-09T14:03:01.161Z,61.60
2018-04-09T14:05:28.652Z,62.00
2018-04-09T14:07:57.052Z,60.80
2018-04-09T14:10:25.396Z,59.50
2018-04-09T14:12:52.860Z,59.40
2018-04-09T14:15:20.314Z,59.60
2018-04-09T14:17:47.754Z,60.80
2018-04-09T14:20:15.207Z,59.40
2018-04-09T14:22:42.651Z,60.00
2018-04-09T14:25:11.544Z,58.90
2018-04-09T14:27:38.990Z,58.80
2018-04-09T14:30:06.439Z,58.80
2018-04-09T14:32:33.892Z,59.10
2018-04-09T14:35:01.375Z,60.30
2018-04-09T14:37:28.832Z,60.60
2018-04-09T14:39:56.292Z,60.10
2018-04-09T14:42:23.735Z,59.50
2018-04-09T14:44:51.210Z,59.90
2018-04-09T14:47:19.406Z,61.80
2018-04-09T14:49:46.857Z,61.30
2018-04-09T14:52:14.309Z,61.20
2018-04-09T14:54:41.772Z,62.10
2018-04-09T14:57:09.215Z,62.00
2018-04-09T14:59:36.665Z,60.40
2018-04-09T15:02:04.126Z,59.90
2018-04-09T15:04:31.586Z,59.80
2018-04-09T15:06:59.073Z,59.30
2018-04-09T15:09:26.525Z,59.20
2018-04-09T15:11:53.983Z,60.10
2018-04-09T15:14:21.467Z,60.70
2018-04-09T15:16:48.937Z,60.70
2018-04-09T15:19:16.396Z,60.00
2018-04-09T15:21:43.837Z,59.70
2018-04-09T15:24:11.292Z,59.80
2018-04-09T15:26:39.761Z,60.90
2018-04-09T15:29:07.318Z,60.30
2018-04-09T15:31:34.811Z,61.30
2018-04-09T15:34:02.378Z,61.50
2018-04-09T15:36:29.855Z,61.00
2018-04-09T15:38:57.322Z,61.70
2018-04-09T15:41:24.794Z,61.80
2018-04-09T15:43:52.244Z,61.50
2018-04-09T15:46:19.706Z,60.10
2018-04-09T15:48:47.159Z,60.30
2018-04-09T15:51:14.814Z,60.00
2018-04-09T15:53:42.247Z,60.60
2018-04-09T15:56:10.465Z,61.10
2018-04-09T15:58:37.917Z,61.10
2018-04-09T16:01:05.788Z,59.70
2018-04-09T16:03:33.313Z,59.50
2018-04-09T16:06:00.822Z,60.50
2018-04-09T16:08:28.324Z,60.00
2018-04-09T16:10:56.569Z,60.00
2018-04-09T16:13:24.042Z,60.00
2018-04-09T16:15:51.505Z,59.80
2018-04-09T16:18:18.959Z,59.40
2018-04-09T16:20:46.409Z,59.60
2018-04-09T16:23:13.876Z,60.00
2018-04-09T16:25:41.346Z,60.40
2018-04-09T16:28:08.814Z,60.60
2018-04-09T16:30:36.409Z,60.80
2018-04-09T16:33:03.988Z,60.70
2018-04-09T16:35:31.438Z,61.50
2018-04-09T16:37:58.900Z,61.30
2018-04-09T16:40:26.343Z,62.20
2018-04-09T16:42:53.791Z,61.70
2018-04-09T16:45:22.542Z,61.90
2018-04-09T16:47:51.265Z,63.60
2018-04-09T16:50:19.002Z,63.70
2018-04-09T16:52:47.312Z,68.20
2018-04-09T16:55:14.759Z,68.30
2018-04-09T16:57:42.219Z,70.80
2018-04-09T17:00:09.687Z,72.80
2018-04-09T17:02:37.128Z,73.40
2018-04-09T17:05:05.386Z,74.10
2018-04-09T17:07:33.821Z,74.10
2018-04-09T17:10:01.294Z,74.20
2018-04-09T17:12:28.747Z,74.70
2018-04-09T17:14:56.241Z,75.50
2018-04-09T17:17:23.683Z,75.50
2018-04-09T17:19:51.136Z,76.00
2018-04-09T17:25:09.905Z,77.10
2018-04-09T17:27:37.365Z,76.80
2018-04-09T17:30:04.837Z,77.10
2018-04-09T17:32:32.314Z,77.00
2018-04-09T17:35:01.676Z,77.00
2018-04-09T17:37:29.134Z,76.90
2018-04-09T17:39:57.364Z,76.70
2018-04-09T17:42:24.811Z,76.60
2018-04-09T17:44:52.271Z,76.60
2018-04-09T17:47:19.813Z,76.50
2018-04-09T17:49:47.292Z,76.10
2018-04-09T17:52:14.778Z,76.50
2018-04-09T17:54:42.255Z,76.70
2018-04-09T17:57:09.703Z,77.00
2018-04-09T17:59:37.183Z,77.40
2018-04-09T18:02:04.628Z,78.50
2018-04-09T18:04:32.267Z,78.70
2018-04-09T18:06:59.739Z,78.70
2018-04-09T18:09:27.939Z,78.80
2018-04-09T18:11:55.401Z,79.20
2018-04-09T18:14:23.654Z,79.90
2018-04-09T18:16:51.200Z,79.90
2018-04-09T18:19:18.666Z,79.80
2018-04-09T18:21:46.112Z,80.20
2018-04-09T18:24:14.381Z,80.10
2018-04-09T18:26:42.682Z,79.20
2018-04-09T18:29:11.565Z,79.10
2018-04-09T18:31:39.903Z,78.90
2018-04-09T18:34:07.376Z,78.90
2018-04-09T18:36:34.874Z,79.70
2018-04-09T18:39:03.131Z,79.60
2018-04-09T18:41:30.609Z,79.70
2018-04-09T18:43:58.068Z,79.70
2018-04-09T18:46:25.520Z,79.80
2018-04-09T18:48:52.973Z,80.30
2018-04-09T18:51:20.440Z,80.60
2018-04-09T18:53:47.899Z,80.20
2018-04-09T18:56:15.366Z,80.80
2018-04-09T18:58:42.813Z,81.10
2018-04-09T19:01:10.274Z,81.00
2018-04-09T19:03:37.707Z,80.80
2018-04-09T19:06:05.177Z,81.10
2018-04-09T19:08:32.678Z,80.70
2018-04-09T19:11:00.135Z,81.10
2018-04-09T19:13:27.642Z,80.70
2018-04-09T19:15:55.882Z,79.70
2018-04-09T19:18:23.358Z,79.80
2018-04-09T19:20:50.877Z,80.30
2018-04-09T19:23:18.376Z,81.00
2018-04-09T19:25:45.888Z,80.70
2018-04-09T19:28:13.400Z,81.10
2018-04-09T19:30:41.054Z,80.70
2018-04-09T19:33:08.503Z,80.80
2018-04-09T19:38:42.542Z,78.80
2018-04-09T19:41:10.098Z,79.20
2018-04-09T19:43:37.612Z,79.00
2018-04-09T19:46:05.118Z,78.20
2018-04-09T19:48:32.565Z,78.10
2018-04-09T19:53:33.780Z,78.50
2018-04-09T19:56:01.201Z,79.20
2018-04-09T20:01:31.598Z,79.90
2018-04-09T20:03:59.170Z,81.30
2018-04-09T20:06:26.947Z,82.30
2018-04-09T20:08:54.534Z,82.80
2018-04-09T20:11:22.853Z,83.20
2018-04-09T20:13:51.200Z,83.20
2018-04-09T20:16:19.608Z,83.30
2018-04-09T20:18:48.155Z,83.30
2018-04-09T20:21:15.735Z,83.20
2018-04-09T20:23:44.075Z,83.90
2018-04-09T20:26:13.355Z,83.90
2018-04-09T20:28:40.982Z,83.90
2018-04-09T20:31:09.647Z,84.20
2018-04-09T20:33:37.216Z,84.20
2018-04-09T20:36:05.565Z,85.20
2018-04-09T20:38:33.128Z,85.00
2018-04-09T20:41:00.777Z,85.20
2018-04-09T20:43:28.382Z,84.20
2018-04-09T20:45:55.974Z,85.00
2018-04-09T21:05:43.715Z,88.60
2018-04-09T21:08:11.304Z,88.10
2018-04-09T21:10:38.937Z,87.30
2018-04-09T21:13:07.222Z,86.70
2018-04-09T21:15:34.817Z,86.70
2018-04-09T21:18:02.410Z,86.90
2018-04-09T21:20:30.443Z,87.10
2018-04-09T21:22:58.052Z,88.50
2018-04-09T21:25:25.652Z,88.60
2018-04-09T21:27:53.240Z,88.50
2018-04-09T21:30:20.882Z,88.50
2018-04-09T21:32:49.683Z,88.80
2018-04-09T21:35:17.262Z,88.80
2018-04-09T21:37:44.913Z,88.90
2018-04-09T21:40:13.451Z,90.20
2018-04-09T21:42:41.000Z,90.10
2018-04-09T21:45:08.593Z,90.40
2018-04-09T21:47:36.314Z,90.70
2018-04-09T21:50:03.925Z,90.80
2018-04-09T21:52:32.255Z,90.10
2018-04-09T21:54:59.824Z,90.10
2018-04-09T21:57:27.392Z,90.00
2018-04-09T21:59:55.010Z,90.30
2018-04-09T22:02:22.637Z,90.30
2018-04-09T22:04:50.241Z,90.20
2018-04-09T22:07:17.772Z,89.50
2018-04-09T22:09:45.332Z,89.40
2018-04-09T22:12:12.894Z,90.10
2018-04-09T22:14:40.474Z,90.00
2018-04-09T22:17:08.972Z,89.00
2018-04-09T22:19:36.541Z,88.80
2018-04-09T22:22:04.165Z,88.60
2018-04-09T22:24:33.053Z,88.60
2018-04-09T22:27:00.691Z,89.80
2018-04-09T22:29:28.283Z,90.50
2018-04-09T22:31:55.846Z,91.10
2018-04-09T22:34:23.447Z,91.10
2018-04-09T22:36:51.048Z,90.90
2018-04-09T22:39:18.619Z,90.80
2018-04-09T22:41:46.225Z,90.60
2018-04-09T22:44:13.976Z,90.40
2018-04-09T22:46:42.850Z,90.50
2018-04-09T22:49:10.429Z,90.50
2018-04-09T22:51:38.888Z,90.90
2018-04-09T22:54:06.472Z,91.50
2018-04-09T22:56:34.060Z,91.60
2018-04-09T22:59:02.003Z,90.80
2018-04-09T23:01:29.574Z,91.00
2018-04-09T23:03:57.931Z,91.20
2018-04-09T23:06:26.296Z,91.40
2018-04-09T23:08:53.841Z,91.30
2018-04-09T23:11:21.458Z,90.90
2018-04-09T23:13:49.049Z,91.20
2018-04-09T23:16:17.362Z,90.90
2018-04-09T23:18:44.959Z,91.10
2018-04-09T23:21:12.551Z,91.60
2018-04-09T23:23:40.162Z,91.90
2018-04-09T23:26:08.516Z,92.30
2018-04-09T23:28:36.110Z,92.20
2018-04-09T23:31:04.993Z,91.30
2018-04-09T23:33:32.833Z,91.30
2018-04-09T23:36:00.378Z,91.00
2018-04-09T23:38:27.982Z,91.00
2018-04-09T23:40:56.402Z,90.90
2018-04-09T23:43:25.499Z,90.80
2018-04-09T23:45:53.738Z,90.80
2018-04-09T23:48:21.349Z,91.00
2018-04-09T23:50:48.943Z,91.40
2018-04-09T23:53:16.513Z,91.70
2018-04-09T23:55:44.320Z,91.90
2018-04-09T23:58:11.917Z,92.10
